Terminal Aerodrome Forecast
Issued by NWS Wilmington, OH

Home | Current Version | Previous Version | Text Only | Print | Product List | Glossary On
Versions: 1 2 3 4 5 6 7 8 9 10 11 12 13
000
FTUS41 KILN 122300
TAFCMH
TAF
KCMH 122337Z 1300/1324 23008KT P6SM VCSH BKN070
     FM130100 21006KT P6SM BKN150
     FM131300 22010KT P6SM VCSH BKN060
     FM132100 25012G21KT 5SM -SHRA BR VCTS BKN040CB=

USA.gov is the U.S. government's official web portal to all federal, state and local government web resources and services.